sensor_id;sensor_type;location;lat;lon;timestamp;temperature;humidity
26743;DHT22;14341;51.256;22.478;2023-04-28T00:01:33;4.40;99.90
26743;DHT22;14341;51.256;22.478;2023-04-28T00:04:36;4.40;99.90
26743;DHT22;14341;51.256;22.478;2023-04-28T00:07:39;4.30;99.90
26743;DHT22;14341;51.256;22.478;2023-04-28T00:10:43;4.30;99.90
26743;DHT22;14341;51.256;22.478;2023-04-28T00:13:46;4.30;99.90
26743;DHT22;14341;51.256;22.478;2023-04-28T00:16:51;4.20;99.90
26743;DHT22;14341;51.256;22.478;2023-04-28T00:19:58;4.20;99.90
26743;DHT22;14341;51.256;22.478;2023-04-28T00:23:01;4.20;99.90
26743;DHT22;14341;51.256;22.478;2023-04-28T00:26:04;4.50;99.90
26743;DHT22;14341;51.256;22.478;2023-04-28T00:29:07;4.10;99.90
26743;DHT22;14341;51.256;22.478;2023-04-28T00:32:13;4.00;99.90
26743;DHT22;14341;51.256;22.478;2023-04-28T00:35:16;3.90;99.90
26743;DHT22;14341;51.256;22.478;2023-04-28T00:38:20;3.80;99.90
26743;DHT22;14341;51.256;22.478;2023-04-28T00:41:26;3.70;99.90
26743;DHT22;14341;51.256;22.478;2023-04-28T00:44:29;3.50;99.90
26743;DHT22;14341;51.256;22.478;2023-04-28T00:47:35;3.40;99.90
26743;DHT22;14341;51.256;22.478;2023-04-28T00:50:39;3.20;99.90
26743;DHT22;14341;51.256;22.478;2023-04-28T00:53:42;3.10;99.90
26743;DHT22;14341;51.256;22.478;2023-04-28T00:56:46;3.00;99.90
26743;DHT22;14341;51.256;22.478;2023-04-28T00:59:49;2.80;99.90
26743;DHT22;14341;51.256;22.478;2023-04-28T01:02:56;2.80;99.90
26743;DHT22;14341;51.256;22.478;2023-04-28T01:06:01;2.70;99.90
26743;DHT22;14341;51.256;22.478;2023-04-28T01:09:04;2.80;99.90
26743;DHT22;14341;51.256;22.478;2023-04-28T01:12:08;2.70;99.90
26743;DHT22;14341;51.256;22.478;2023-04-28T01:15:19;2.80;99.90
26743;DHT22;14341;51.256;22.478;2023-04-28T01:18:29;2.60;99.90
26743;DHT22;14341;51.256;22.478;2023-04-28T01:21:33;2.50;99.90
26743;DHT22;14341;51.256;22.478;2023-04-28T01:24:55;2.40;99.90
26743;DHT22;14341;51.256;22.478;2023-04-28T01:28:00;2.40;99.90
26743;DHT22;14341;51.256;22.478;2023-04-28T01:31:03;2.30;99.90
26743;DHT22;14341;51.256;22.478;2023-04-28T01:34:06;2.30;99.90
26743;DHT22;14341;51.256;22.478;2023-04-28T01:37:10;2.20;99.90
26743;DHT22;14341;51.256;22.478;2023-04-28T01:40:15;2.20;99.90
26743;DHT22;14341;51.256;22.478;2023-04-28T01:43:18;2.20;99.90
26743;DHT22;14341;51.256;22.478;2023-04-28T01:46:21;2.20;99.90
26743;DHT22;14341;51.256;22.478;2023-04-28T01:49:25;2.20;99.90
26743;DHT22;14341;51.256;22.478;2023-04-28T01:52:28;2.30;99.90
26743;DHT22;14341;51.256;22.478;2023-04-28T01:55:33;2.30;99.90
26743;DHT22;14341;51.256;22.478;2023-04-28T01:58:36;2.40;99.90
26743;DHT22;14341;51.256;22.478;2023-04-28T02:01:40;2.50;99.90
26743;DHT22;14341;51.256;22.478;2023-04-28T02:04:44;2.50;99.90
26743;DHT22;14341;51.256;22.478;2023-04-28T02:07:48;2.60;99.90
26743;DHT22;14341;51.256;22.478;2023-04-28T02:10:54;2.70;99.90
26743;DHT22;14341;51.256;22.478;2023-04-28T02:13:58;2.80;99.90
26743;DHT22;14341;51.256;22.478;2023-04-28T02:17:02;2.90;99.90
26743;DHT22;14341;51.256;22.478;2023-04-28T02:20:08;3.00;99.90
26743;DHT22;14341;51.256;22.478;2023-04-28T02:23:11;3.10;99.90
26743;DHT22;14341;51.256;22.478;2023-04-28T02:26:16;3.20;99.90
26743;DHT22;14341;51.256;22.478;2023-04-28T02:29:19;3.30;99.90
26743;DHT22;14341;51.256;22.478;2023-04-28T02:32:23;3.30;99.90
26743;DHT22;14341;51.256;22.478;2023-04-28T02:35:26;3.40;99.90
26743;DHT22;14341;51.256;22.478;2023-04-28T02:38:29;3.50;99.90
26743;DHT22;14341;51.256;22.478;2023-04-28T02:41:35;3.50;99.90
26743;DHT22;14341;51.256;22.478;2023-04-28T02:44:38;3.50;99.90
26743;DHT22;14341;51.256;22.478;2023-04-28T02:47:42;3.50;99.90
26743;DHT22;14341;51.256;22.478;2023-04-28T02:50:45;3.50;99.90
26743;DHT22;14341;51.256;22.478;2023-04-28T02:53:49;3.50;99.90
26743;DHT22;14341;51.256;22.478;2023-04-28T02:56:53;3.60;99.90
26743;DHT22;14341;51.256;22.478;2023-04-28T02:59:58;3.50;99.90
26743;DHT22;14341;51.256;22.478;2023-04-28T03:03:06;3.50;99.90
26743;DHT22;14341;51.256;22.478;2023-04-28T03:06:09;3.50;99.90
26743;DHT22;14341;51.256;22.478;2023-04-28T03:09:12;3.50;99.90
26743;DHT22;14341;51.256;22.478;2023-04-28T03:12:17;3.50;99.90
26743;DHT22;14341;51.256;22.478;2023-04-28T03:15:21;3.50;99.90
26743;DHT22;14341;51.256;22.478;2023-04-28T03:18:24;3.50;99.90
26743;DHT22;14341;51.256;22.478;2023-04-28T03:21:29;3.40;99.90
26743;DHT22;14341;51.256;22.478;2023-04-28T03:24:33;3.30;99.90
26743;DHT22;14341;51.256;22.478;2023-04-28T03:27:38;3.20;99.90
26743;DHT22;14341;51.256;22.478;2023-04-28T03:30:41;3.10;99.90
26743;DHT22;14341;51.256;22.478;2023-04-28T03:33:44;3.00;99.90
26743;DHT22;14341;51.256;22.478;2023-04-28T03:36:50;2.90;99.90
26743;DHT22;14341;51.256;22.478;2023-04-28T03:39:59;2.90;99.90
26743;DHT22;14341;51.256;22.478;2023-04-28T03:43:11;2.80;99.90
26743;DHT22;14341;51.256;22.478;2023-04-28T03:46:22;2.80;99.90
26743;DHT22;14341;51.256;22.478;2023-04-28T03:49:26;2.80;99.90
26743;DHT22;14341;51.256;22.478;2023-04-28T03:52:29;2.80;99.90
26743;DHT22;14341;51.256;22.478;2023-04-28T03:55:32;2.80;99.90
26743;DHT22;14341;51.256;22.478;2023-04-28T03:58:37;2.80;99.90
26743;DHT22;14341;51.256;22.478;2023-04-28T04:01:40;2.90;99.90
26743;DHT22;14341;51.256;22.478;2023-04-28T04:04:45;3.00;99.90
26743;DHT22;14341;51.256;22.478;2023-04-28T04:07:48;3.00;99.90
26743;DHT22;14341;51.256;22.478;2023-04-28T04:10:52;3.10;99.90
26743;DHT22;14341;51.256;22.478;2023-04-28T04:13:58;3.20;99.90
26743;DHT22;14341;51.256;22.478;2023-04-28T04:17:01;3.30;99.90
26743;DHT22;14341;51.256;22.478;2023-04-28T04:20:06;3.40;99.90
26743;DHT22;14341;51.256;22.478;2023-04-28T04:23:09;3.60;99.90
26743;DHT22;14341;51.256;22.478;2023-04-28T04:26:13;3.70;99.90
26743;DHT22;14341;51.256;22.478;2023-04-28T04:29:17;3.90;99.90
26743;DHT22;14341;51.256;22.478;2023-04-28T04:32:21;4.20;99.90
26743;DHT22;14341;51.256;22.478;2023-04-28T04:35:24;4.30;99.90
26743;DHT22;14341;51.256;22.478;2023-04-28T04:51:45;4.50;99.90
26743;DHT22;14341;51.256;22.478;2023-04-28T04:54:49;5.00;99.90
26743;DHT22;14341;51.256;22.478;2023-04-28T04:57:52;5.00;99.90
26743;DHT22;14341;51.256;22.478;2023-04-28T05:01:22;5.10;99.90
26743;DHT22;14341;51.256;22.478;2023-04-28T05:04:26;5.20;99.90
26743;DHT22;14341;51.256;22.478;2023-04-28T05:07:31;5.30;99.90
26743;DHT22;14341;51.256;22.478;2023-04-28T05:10:34;5.50;99.90
26743;DHT22;14341;51.256;22.478;2023-04-28T05:13:38;5.80;99.90
26743;DHT22;14341;51.256;22.478;2023-04-28T05:16:42;5.80;99.90
26743;DHT22;14341;51.256;22.478;2023-04-28T05:19:50;5.90;99.90
26743;DHT22;14341;51.256;22.478;2023-04-28T05:22:54;6.00;99.90
26743;DHT22;14341;51.256;22.478;2023-04-28T05:25:58;5.90;99.90
26743;DHT22;14341;51.256;22.478;2023-04-28T05:29:02;6.00;99.90
26743;DHT22;14341;51.256;22.478;2023-04-28T05:32:06;6.10;99.90
26743;DHT22;14341;51.256;22.478;2023-04-28T05:35:10;6.20;99.90
26743;DHT22;14341;51.256;22.478;2023-04-28T05:38:15;6.30;99.90
26743;DHT22;14341;51.256;22.478;2023-04-28T05:41:19;6.40;99.90
26743;DHT22;14341;51.256;22.478;2023-04-28T05:44:24;6.50;99.90
26743;DHT22;14341;51.256;22.478;2023-04-28T05:47:32;6.70;99.90
26743;DHT22;14341;51.256;22.478;2023-04-28T05:50:37;6.70;99.90
26743;DHT22;14341;51.256;22.478;2023-04-28T05:53:42;6.90;99.90
26743;DHT22;14341;51.256;22.478;2023-04-28T05:56:45;7.10;99.90
26743;DHT22;14341;51.256;22.478;2023-04-28T05:59:48;7.30;99.90
26743;DHT22;14341;51.256;22.478;2023-04-28T06:02:52;7.50;99.90
26743;DHT22;14341;51.256;22.478;2023-04-28T06:05:56;7.60;96.80
26743;DHT22;14341;51.256;22.478;2023-04-28T06:09:01;7.80;87.40
26743;DHT22;14341;51.256;22.478;2023-04-28T06:12:07;7.90;44.70
26743;DHT22;14341;51.256;22.478;2023-04-28T06:15:10;8.00;38.20
26743;DHT22;14341;51.256;22.478;2023-04-28T06:18:14;8.10;35.20
26743;DHT22;14341;51.256;22.478;2023-04-28T06:21:17;8.10;22.40
26743;DHT22;14341;51.256;22.478;2023-04-28T06:24:23;8.20;9.10
26743;DHT22;14341;51.256;22.478;2023-04-28T06:27:29;8.20;1.00
26743;DHT22;14341;51.256;22.478;2023-04-28T06:30:34;8.20;1.00
26743;DHT22;14341;51.256;22.478;2023-04-28T06:33:37;8.20;1.00
26743;DHT22;14341;51.256;22.478;2023-04-28T06:36:41;8.30;1.00
26743;DHT22;14341;51.256;22.478;2023-04-28T06:39:46;8.50;1.00
26743;DHT22;14341;51.256;22.478;2023-04-28T06:42:50;8.50;1.00
26743;DHT22;14341;51.256;22.478;2023-04-28T06:45:58;8.50;1.00
26743;DHT22;14341;51.256;22.478;2023-04-28T06:49:01;8.60;1.00
26743;DHT22;14341;51.256;22.478;2023-04-28T06:52:05;8.80;1.00
26743;DHT22;14341;51.256;22.478;2023-04-28T06:55:14;8.90;99.90
26743;DHT22;14341;51.256;22.478;2023-04-28T06:58:17;9.10;99.90
26743;DHT22;14341;51.256;22.478;2023-04-28T07:01:22;9.10;99.90
26743;DHT22;14341;51.256;22.478;2023-04-28T07:04:25;9.10;99.90
26743;DHT22;14341;51.256;22.478;2023-04-28T07:07:29;9.30;99.90
26743;DHT22;14341;51.256;22.478;2023-04-28T07:10:34;9.30;99.90
26743;DHT22;14341;51.256;22.478;2023-04-28T07:13:37;9.20;99.90
26743;DHT22;14341;51.256;22.478;2023-04-28T07:16:40;9.10;99.90
26743;DHT22;14341;51.256;22.478;2023-04-28T07:19:44;9.00;99.90
26743;DHT22;14341;51.256;22.478;2023-04-28T07:22:47;8.90;99.90
26743;DHT22;14341;51.256;22.478;2023-04-28T07:25:52;9.10;99.90
26743;DHT22;14341;51.256;22.478;2023-04-28T07:28:55;9.50;99.90
26743;DHT22;14341;51.256;22.478;2023-04-28T07:31:58;9.80;99.90
26743;DHT22;14341;51.256;22.478;2023-04-28T07:35:02;9.70;99.90
26743;DHT22;14341;51.256;22.478;2023-04-28T07:38:05;9.70;99.90
26743;DHT22;14341;51.256;22.478;2023-04-28T07:41:10;9.70;99.90
26743;DHT22;14341;51.256;22.478;2023-04-28T07:44:14;9.70;99.90
26743;DHT22;14341;51.256;22.478;2023-04-28T07:47:17;9.70;99.90
26743;DHT22;14341;51.256;22.478;2023-04-28T07:50:21;9.80;99.90
26743;DHT22;14341;51.256;22.478;2023-04-28T07:53:24;9.90;99.90
26743;DHT22;14341;51.256;22.478;2023-04-28T07:56:29;10.00;99.90
26743;DHT22;14341;51.256;22.478;2023-04-28T07:59:33;10.20;99.90
26743;DHT22;14341;51.256;22.478;2023-04-28T08:02:36;10.10;99.90
26743;DHT22;14341;51.256;22.478;2023-04-28T08:05:40;10.00;99.90
26743;DHT22;14341;51.256;22.478;2023-04-28T08:08:43;9.90;99.90
26743;DHT22;14341;51.256;22.478;2023-04-28T08:11:48;10.00;99.90
26743;DHT22;14341;51.256;22.478;2023-04-28T08:14:51;10.00;99.90
26743;DHT22;14341;51.256;22.478;2023-04-28T08:17:54;9.90;99.90
26743;DHT22;14341;51.256;22.478;2023-04-28T08:20:58;9.80;99.90
26743;DHT22;14341;51.256;22.478;2023-04-28T08:24:01;10.00;99.90
26743;DHT22;14341;51.256;22.478;2023-04-28T08:27:06;10.00;99.90
26743;DHT22;14341;51.256;22.478;2023-04-28T08:30:09;10.20;99.90
26743;DHT22;14341;51.256;22.478;2023-04-28T08:33:13;10.40;99.90
26743;DHT22;14341;51.256;22.478;2023-04-28T08:36:16;10.50;99.90
26743;DHT22;14341;51.256;22.478;2023-04-28T08:39:20;10.50;99.90
26743;DHT22;14341;51.256;22.478;2023-04-28T08:42:28;10.90;99.90
26743;DHT22;14341;51.256;22.478;2023-04-28T08:45:39;11.10;99.90
26743;DHT22;14341;51.256;22.478;2023-04-28T08:48:43;11.10;99.90
26743;DHT22;14341;51.256;22.478;2023-04-28T08:51:52;10.80;99.90
26743;DHT22;14341;51.256;22.478;2023-04-28T08:54:58;10.20;99.90
26743;DHT22;14341;51.256;22.478;2023-04-28T08:58:04;10.20;99.90
26743;DHT22;14341;51.256;22.478;2023-04-28T09:01:07;10.40;99.90
26743;DHT22;14341;51.256;22.478;2023-04-28T09:04:11;10.90;99.90
26743;DHT22;14341;51.256;22.478;2023-04-28T09:07:15;11.30;99.90
26743;DHT22;14341;51.256;22.478;2023-04-28T09:10:20;11.20;99.90
26743;DHT22;14341;51.256;22.478;2023-04-28T09:13:25;11.30;99.90
26743;DHT22;14341;51.256;22.478;2023-04-28T09:16:38;11.60;99.90
26743;DHT22;14341;51.256;22.478;2023-04-28T09:19:42;11.80;99.90
26743;DHT22;14341;51.256;22.478;2023-04-28T09:22:46;12.40;99.90
26743;DHT22;14341;51.256;22.478;2023-04-28T09:25:59;12.70;99.90
26743;DHT22;14341;51.256;22.478;2023-04-28T09:29:12;12.10;99.90
26743;DHT22;14341;51.256;22.478;2023-04-28T09:32:17;12.10;99.90
26743;DHT22;14341;51.256;22.478;2023-04-28T09:35:38;11.80;99.90
26743;DHT22;14341;51.256;22.478;2023-04-28T09:38:42;12.10;99.90
26743;DHT22;14341;51.256;22.478;2023-04-28T09:41:45;12.40;99.90
26743;DHT22;14341;51.256;22.478;2023-04-28T09:44:53;12.10;99.90
26743;DHT22;14341;51.256;22.478;2023-04-28T09:48:08;11.90;99.90
26743;DHT22;14341;51.256;22.478;2023-04-28T09:51:19;11.90;99.90
26743;DHT22;14341;51.256;22.478;2023-04-28T09:54:23;11.70;99.90
26743;DHT22;14341;51.256;22.478;2023-04-28T09:57:29;11.90;99.90
26743;DHT22;14341;51.256;22.478;2023-04-28T10:00:36;11.80;99.90
26743;DHT22;14341;51.256;22.478;2023-04-28T10:03:40;11.70;99.90
26743;DHT22;14341;51.256;22.478;2023-04-28T10:06:45;11.90;99.90
26743;DHT22;14341;51.256;22.478;2023-04-28T10:09:50;11.70;99.90
26743;DHT22;14341;51.256;22.478;2023-04-28T10:12:53;12.10;99.90
26743;DHT22;14341;51.256;22.478;2023-04-28T10:15:58;12.00;99.90
26743;DHT22;14341;51.256;22.478;2023-04-28T10:19:03;11.90;99.90
26743;DHT22;14341;51.256;22.478;2023-04-28T10:22:23;12.20;99.90
26743;DHT22;14341;51.256;22.478;2023-04-28T10:25:31;12.10;99.90
26743;DHT22;14341;51.256;22.478;2023-04-28T10:28:36;12.20;99.90
26743;DHT22;14341;51.256;22.478;2023-04-28T10:32:13;12.30;99.90
26743;DHT22;14341;51.256;22.478;2023-04-28T10:35:40;12.00;99.90
26743;DHT22;14341;51.256;22.478;2023-04-28T10:39:08;11.80;99.90
26743;DHT22;14341;51.256;22.478;2023-04-28T10:42:50;11.70;99.90
26743;DHT22;14341;51.256;22.478;2023-04-28T10:46:01;11.50;99.90
26743;DHT22;14341;51.256;22.478;2023-04-28T10:49:08;12.10;99.90
26743;DHT22;14341;51.256;22.478;2023-04-28T10:56:04;12.60;99.90
26743;DHT22;14341;51.256;22.478;2023-04-28T10:59:25;12.20;99.90
26743;DHT22;14341;51.256;22.478;2023-04-28T11:02:47;12.20;99.90
26743;DHT22;14341;51.256;22.478;2023-04-28T11:06:19;12.20;99.90
26743;DHT22;14341;51.256;22.478;2023-04-28T11:09:46;12.20;99.90
26743;DHT22;14341;51.256;22.478;2023-04-28T11:13:24;13.10;99.90
26743;DHT22;14341;51.256;22.478;2023-04-28T11:16:28;12.70;99.90
26743;DHT22;14341;51.256;22.478;2023-04-28T11:19:33;12.50;99.90
26743;DHT22;14341;51.256;22.478;2023-04-28T11:22:38;12.40;99.90
26743;DHT22;14341;51.256;22.478;2023-04-28T11:25:54;12.40;99.90
26743;DHT22;14341;51.256;22.478;2023-04-28T11:28:58;12.60;99.90
26743;DHT22;14341;51.256;22.478;2023-04-28T11:32:02;13.50;99.90
26743;DHT22;14341;51.256;22.478;2023-04-28T11:35:06;13.90;99.90
26743;DHT22;14341;51.256;22.478;2023-04-28T11:38:12;15.20;99.90
26743;DHT22;14341;51.256;22.478;2023-04-28T11:41:15;16.40;99.90
26743;DHT22;14341;51.256;22.478;2023-04-28T11:44:20;16.20;99.90
26743;DHT22;14341;51.256;22.478;2023-04-28T11:47:30;15.10;99.90
26743;DHT22;14341;51.256;22.478;2023-04-28T11:50:34;14.90;99.90
26743;DHT22;14341;51.256;22.478;2023-04-28T11:53:43;16.40;99.90
26743;DHT22;14341;51.256;22.478;2023-04-28T11:56:47;17.20;99.90
26743;DHT22;14341;51.256;22.478;2023-04-28T11:59:51;17.80;99.90
26743;DHT22;14341;51.256;22.478;2023-04-28T12:02:54;18.40;99.90
26743;DHT22;14341;51.256;22.478;2023-04-28T12:05:58;16.90;99.90
26743;DHT22;14341;51.256;22.478;2023-04-28T12:09:15;16.10;99.90
26743;DHT22;14341;51.256;22.478;2023-04-28T12:12:28;15.40;99.90
26743;DHT22;14341;51.256;22.478;2023-04-28T12:15:51;14.90;99.90
26743;DHT22;14341;51.256;22.478;2023-04-28T12:18:57;16.40;99.90
26743;DHT22;14341;51.256;22.478;2023-04-28T12:22:03;16.10;99.90
26743;DHT22;14341;51.256;22.478;2023-04-28T12:25:09;15.60;99.90
26743;DHT22;14341;51.256;22.478;2023-04-28T12:28:13;16.50;99.90
26743;DHT22;14341;51.256;22.478;2023-04-28T12:31:17;17.50;99.90
26743;DHT22;14341;51.256;22.478;2023-04-28T12:34:20;17.60;99.90
26743;DHT22;14341;51.256;22.478;2023-04-28T12:37:23;17.80;99.90
26743;DHT22;14341;51.256;22.478;2023-04-28T12:40:28;18.80;99.90
26743;DHT22;14341;51.256;22.478;2023-04-28T12:43:31;17.80;99.90
26743;DHT22;14341;51.256;22.478;2023-04-28T12:46:35;16.70;99.90
26743;DHT22;14341;51.256;22.478;2023-04-28T12:49:38;14.90;99.90
26743;DHT22;14341;51.256;22.478;2023-04-28T12:52:42;14.00;99.90
26743;DHT22;14341;51.256;22.478;2023-04-28T12:55:47;15.20;99.90
26743;DHT22;14341;51.256;22.478;2023-04-28T12:58:51;15.20;99.90
26743;DHT22;14341;51.256;22.478;2023-04-28T13:01:54;16.30;99.90
26743;DHT22;14341;51.256;22.478;2023-04-28T13:04:57;17.10;99.90
26743;DHT22;14341;51.256;22.478;2023-04-28T13:08:01;17.80;99.90
26743;DHT22;14341;51.256;22.478;2023-04-28T13:11:06;17.80;99.90
26743;DHT22;14341;51.256;22.478;2023-04-28T13:14:23;18.20;99.90
26743;DHT22;14341;51.256;22.478;2023-04-28T13:17:29;17.70;99.90
26743;DHT22;14341;51.256;22.478;2023-04-28T13:20:32;17.90;99.90
26743;DHT22;14341;51.256;22.478;2023-04-28T13:23:35;16.50;99.90
26743;DHT22;14341;51.256;22.478;2023-04-28T13:26:40;15.40;99.90
26743;DHT22;14341;51.256;22.478;2023-04-28T13:29:45;14.80;99.90
26743;DHT22;14341;51.256;22.478;2023-04-28T13:32:48;14.10;99.90
26743;DHT22;14341;51.256;22.478;2023-04-28T13:35:52;14.00;99.90
26743;DHT22;14341;51.256;22.478;2023-04-28T13:38:56;14.00;99.90
26743;DHT22;14341;51.256;22.478;2023-04-28T13:42:04;15.10;99.90
26743;DHT22;14341;51.256;22.478;2023-04-28T13:45:08;16.70;99.90
26743;DHT22;14341;51.256;22.478;2023-04-28T13:48:12;18.00;99.90
26743;DHT22;14341;51.256;22.478;2023-04-28T13:51:15;18.90;99.90
26743;DHT22;14341;51.256;22.478;2023-04-28T13:54:19;18.00;99.90
26743;DHT22;14341;51.256;22.478;2023-04-28T13:57:25;19.70;99.90
26743;DHT22;14341;51.256;22.478;2023-04-28T14:00:28;19.50;99.90
26743;DHT22;14341;51.256;22.478;2023-04-28T14:03:33;19.90;99.90
26743;DHT22;14341;51.256;22.478;2023-04-28T14:06:36;18.20;99.90
26743;DHT22;14341;51.256;22.478;2023-04-28T14:09:40;18.90;99.90
26743;DHT22;14341;51.256;22.478;2023-04-28T14:12:45;17.40;99.90
26743;DHT22;14341;51.256;22.478;2023-04-28T14:15:48;16.90;99.90
26743;DHT22;14341;51.256;22.478;2023-04-28T14:19:00;18.40;99.90
26743;DHT22;14341;51.256;22.478;2023-04-28T14:22:04;19.30;99.90
26743;DHT22;14341;51.256;22.478;2023-04-28T14:25:08;18.80;99.90
26743;DHT22;14341;51.256;22.478;2023-04-28T14:28:13;19.00;99.90
26743;DHT22;14341;51.256;22.478;2023-04-28T14:31:17;18.90;99.90
26743;DHT22;14341;51.256;22.478;2023-04-28T14:34:20;18.80;99.90
26743;DHT22;14341;51.256;22.478;2023-04-28T14:37:23;18.10;99.90
26743;DHT22;14341;51.256;22.478;2023-04-28T14:40:27;17.90;99.90
26743;DHT22;14341;51.256;22.478;2023-04-28T14:43:32;17.80;99.90
26743;DHT22;14341;51.256;22.478;2023-04-28T14:46:36;16.40;99.90
26743;DHT22;14341;51.256;22.478;2023-04-28T14:49:39;15.70;99.90
26743;DHT22;14341;51.256;22.478;2023-04-28T14:52:42;16.20;99.90
26743;DHT22;14341;51.256;22.478;2023-04-28T14:55:46;16.70;99.90
26743;DHT22;14341;51.256;22.478;2023-04-28T14:58:51;16.50;99.90
26743;DHT22;14341;51.256;22.478;2023-04-28T15:01:55;16.90;99.90
26743;DHT22;14341;51.256;22.478;2023-04-28T15:04:59;16.30;99.90
26743;DHT22;14341;51.256;22.478;2023-04-28T15:08:02;16.70;99.90
26743;DHT22;14341;51.256;22.478;2023-04-28T15:11:06;17.20;99.90
26743;DHT22;14341;51.256;22.478;2023-04-28T15:14:11;17.70;99.90
26743;DHT22;14341;51.256;22.478;2023-04-28T15:17:14;18.40;99.90
26743;DHT22;14341;51.256;22.478;2023-04-28T15:20:18;19.40;99.90
26743;DHT22;14341;51.256;22.478;2023-04-28T15:23:21;19.90;99.90
26743;DHT22;14341;51.256;22.478;2023-04-28T15:26:24;20.00;99.90
26743;DHT22;14341;51.256;22.478;2023-04-28T15:29:32;19.70;99.90
26743;DHT22;14341;51.256;22.478;2023-04-28T15:32:35;20.70;99.90
26743;DHT22;14341;51.256;22.478;2023-04-28T15:35:39;21.20;99.90
26743;DHT22;14341;51.256;22.478;2023-04-28T15:38:43;20.50;99.90
26743;DHT22;14341;51.256;22.478;2023-04-28T15:41:46;19.70;99.90
26743;DHT22;14341;51.256;22.478;2023-04-28T15:44:52;20.00;99.90
26743;DHT22;14341;51.256;22.478;2023-04-28T15:47:56;19.10;99.90
26743;DHT22;14341;51.256;22.478;2023-04-28T15:50:59;18.80;99.90
26743;DHT22;14341;51.256;22.478;2023-04-28T15:54:03;18.80;99.90
26743;DHT22;14341;51.256;22.478;2023-04-28T15:57:06;18.10;99.90
26743;DHT22;14341;51.256;22.478;2023-04-28T16:00:14;18.70;99.90
26743;DHT22;14341;51.256;22.478;2023-04-28T16:03:19;19.50;99.90
26743;DHT22;14341;51.256;22.478;2023-04-28T16:06:22;19.60;99.90
26743;DHT22;14341;51.256;22.478;2023-04-28T16:09:26;19.80;99.90
26743;DHT22;14341;51.256;22.478;2023-04-28T16:12:30;18.90;99.90
26743;DHT22;14341;51.256;22.478;2023-04-28T16:15:36;17.70;99.90
26743;DHT22;14341;51.256;22.478;2023-04-28T16:18:40;17.20;99.90
26743;DHT22;14341;51.256;22.478;2023-04-28T16:21:45;17.60;99.90
26743;DHT22;14341;51.256;22.478;2023-04-28T16:24:48;18.10;99.90
26743;DHT22;14341;51.256;22.478;2023-04-28T16:27:52;17.00;99.90
26743;DHT22;14341;51.256;22.478;2023-04-28T16:30:57;16.30;99.90
26743;DHT22;14341;51.256;22.478;2023-04-28T16:34:01;16.00;99.90
26743;DHT22;14341;51.256;22.478;2023-04-28T16:37:05;15.70;99.90
26743;DHT22;14341;51.256;22.478;2023-04-28T16:40:10;15.00;99.90
26743;DHT22;14341;51.256;22.478;2023-04-28T16:43:14;14.60;99.90
26743;DHT22;14341;51.256;22.478;2023-04-28T16:46:19;14.00;99.90
26743;DHT22;14341;51.256;22.478;2023-04-28T16:49:22;13.70;99.90
26743;DHT22;14341;51.256;22.478;2023-04-28T16:52:26;13.40;99.90
26743;DHT22;14341;51.256;22.478;2023-04-28T16:55:29;13.10;99.90
26743;DHT22;14341;51.256;22.478;2023-04-28T16:58:32;12.80;99.90
26743;DHT22;14341;51.256;22.478;2023-04-28T17:01:37;12.40;99.90
26743;DHT22;14341;51.256;22.478;2023-04-28T17:04:41;12.20;99.90
26743;DHT22;14341;51.256;22.478;2023-04-28T17:07:44;12.00;99.90
26743;DHT22;14341;51.256;22.478;2023-04-28T17:10:48;11.80;99.90
26743;DHT22;14341;51.256;22.478;2023-04-28T17:13:52;11.50;99.90
26743;DHT22;14341;51.256;22.478;2023-04-28T17:16:58;11.20;99.90
26743;DHT22;14341;51.256;22.478;2023-04-28T17:20:01;10.90;99.90
26743;DHT22;14341;51.256;22.478;2023-04-28T17:23:06;10.80;99.90
26743;DHT22;14341;51.256;22.478;2023-04-28T17:26:09;10.60;1.00
26743;DHT22;14341;51.256;22.478;2023-04-28T17:29:13;10.40;1.00
26743;DHT22;14341;51.256;22.478;2023-04-28T17:32:18;10.20;1.00
26743;DHT22;14341;51.256;22.478;2023-04-28T17:35:22;10.00;1.00
26743;DHT22;14341;51.256;22.478;2023-04-28T17:38:26;9.90;1.00
26743;DHT22;14341;51.256;22.478;2023-04-28T17:41:30;9.70;1.00
26743;DHT22;14341;51.256;22.478;2023-04-28T17:44:33;9.40;1.00
26743;DHT22;14341;51.256;22.478;2023-04-28T17:47:38;9.20;1.00
26743;DHT22;14341;51.256;22.478;2023-04-28T17:50:42;9.00;20.90
26743;DHT22;14341;51.256;22.478;2023-04-28T17:53:45;8.90;50.00
26743;DHT22;14341;51.256;22.478;2023-04-28T17:56:49;8.60;71.00
26743;DHT22;14341;51.256;22.478;2023-04-28T17:59:54;8.50;95.20
26743;DHT22;14341;51.256;22.478;2023-04-28T18:03:00;8.50;94.40
26743;DHT22;14341;51.256;22.478;2023-04-28T18:06:04;8.40;94.40
26743;DHT22;14341;51.256;22.478;2023-04-28T18:09:09;8.20;97.30
26743;DHT22;14341;51.256;22.478;2023-04-28T18:12:12;8.00;99.60
26743;DHT22;14341;51.256;22.478;2023-04-28T18:15:17;7.80;99.90
26743;DHT22;14341;51.256;22.478;2023-04-28T18:18:21;7.70;99.90
26743;DHT22;14341;51.256;22.478;2023-04-28T18:21:26;7.60;99.90
26743;DHT22;14341;51.256;22.478;2023-04-28T18:24:30;7.50;99.90
26743;DHT22;14341;51.256;22.478;2023-04-28T18:27:34;7.40;99.90
26743;DHT22;14341;51.256;22.478;2023-04-28T18:30:37;7.30;99.90
26743;DHT22;14341;51.256;22.478;2023-04-28T18:33:44;7.30;99.90
26743;DHT22;14341;51.256;22.478;2023-04-28T18:36:48;7.30;99.90
26743;DHT22;14341;51.256;22.478;2023-04-28T18:39:54;7.40;99.90
26743;DHT22;14341;51.256;22.478;2023-04-28T18:42:59;7.30;99.90
26743;DHT22;14341;51.256;22.478;2023-04-28T18:46:03;7.20;99.90
26743;DHT22;14341;51.256;22.478;2023-04-28T18:49:09;7.00;99.90
26743;DHT22;14341;51.256;22.478;2023-04-28T18:52:14;6.80;99.90
26743;DHT22;14341;51.256;22.478;2023-04-28T18:55:19;6.50;99.90
26743;DHT22;14341;51.256;22.478;2023-04-28T18:58:23;6.40;99.90
26743;DHT22;14341;51.256;22.478;2023-04-28T19:01:28;6.60;99.90
26743;DHT22;14341;51.256;22.478;2023-04-28T19:04:35;6.50;99.90
26743;DHT22;14341;51.256;22.478;2023-04-28T19:07:43;6.50;99.90
26743;DHT22;14341;51.256;22.478;2023-04-28T19:10:48;6.50;99.90
26743;DHT22;14341;51.256;22.478;2023-04-28T19:13:52;6.50;99.90
26743;DHT22;14341;51.256;22.478;2023-04-28T19:16:57;6.40;99.90
26743;DHT22;14341;51.256;22.478;2023-04-28T19:20:05;6.40;99.90
26743;DHT22;14341;51.256;22.478;2023-04-28T19:23:12;6.40;99.90
26743;DHT22;14341;51.256;22.478;2023-04-28T19:26:16;6.60;99.90
26743;DHT22;14341;51.256;22.478;2023-04-28T19:29:22;6.80;99.90
26743;DHT22;14341;51.256;22.478;2023-04-28T19:32:27;6.80;99.90
26743;DHT22;14341;51.256;22.478;2023-04-28T19:35:35;6.70;99.90
26743;DHT22;14341;51.256;22.478;2023-04-28T19:38:40;6.70;99.90
26743;DHT22;14341;51.256;22.478;2023-04-28T19:41:50;6.50;99.90